sensor_id;sensor_type;location;lat;lon;timestamp;temperature;humidity
15959;DHT22;8078;47.822;9.402;2022-08-21T00:01:25;15.40;99.90
15959;DHT22;8078;47.822;9.402;2022-08-21T00:03:52;15.50;99.90
15959;DHT22;8078;47.822;9.402;2022-08-21T00:06:18;15.50;99.90
15959;DHT22;8078;47.822;9.402;2022-08-21T00:08:44;15.50;99.90
15959;DHT22;8078;47.822;9.402;2022-08-21T00:11:10;15.70;99.90
15959;DHT22;8078;47.822;9.402;2022-08-21T00:13:36;15.60;99.90
15959;DHT22;8078;47.822;9.402;2022-08-21T00:16:02;15.50;99.90
15959;DHT22;8078;47.822;9.402;2022-08-21T00:18:28;15.50;99.90
15959;DHT22;8078;47.822;9.402;2022-08-21T00:20:54;15.60;99.90
15959;DHT22;8078;47.822;9.402;2022-08-21T00:23:20;15.50;99.90
15959;DHT22;8078;47.822;9.402;2022-08-21T00:25:46;15.50;99.90
15959;DHT22;8078;47.822;9.402;2022-08-21T00:28:12;15.50;99.90
15959;DHT22;8078;47.822;9.402;2022-08-21T00:30:39;15.50;99.90
15959;DHT22;8078;47.822;9.402;2022-08-21T00:33:05;15.50;99.90
15959;DHT22;8078;47.822;9.402;2022-08-21T00:35:35;15.50;99.90
15959;DHT22;8078;47.822;9.402;2022-08-21T00:38:03;15.50;99.90
15959;DHT22;8078;47.822;9.402;2022-08-21T00:40:34;15.50;99.90
15959;DHT22;8078;47.822;9.402;2022-08-21T00:43:02;15.40;99.90
15959;DHT22;8078;47.822;9.402;2022-08-21T00:45:28;15.50;99.90
15959;DHT22;8078;47.822;9.402;2022-08-21T00:47:53;15.50;99.90
15959;DHT22;8078;47.822;9.402;2022-08-21T00:50:20;15.40;99.90
15959;DHT22;8078;47.822;9.402;2022-08-21T00:52:46;15.50;99.90
15959;DHT22;8078;47.822;9.402;2022-08-21T00:55:13;15.50;99.90
15959;DHT22;8078;47.822;9.402;2022-08-21T00:57:47;15.60;99.90
15959;DHT22;8078;47.822;9.402;2022-08-21T01:00:19;15.50;99.90
15959;DHT22;8078;47.822;9.402;2022-08-21T01:02:45;15.40;99.90
15959;DHT22;8078;47.822;9.402;2022-08-21T01:05:12;15.40;99.90
15959;DHT22;8078;47.822;9.402;2022-08-21T01:07:38;15.40;99.90
15959;DHT22;8078;47.822;9.402;2022-08-21T01:10:06;15.40;99.90
15959;DHT22;8078;47.822;9.402;2022-08-21T01:12:32;15.40;99.90
15959;DHT22;8078;47.822;9.402;2022-08-21T01:14:58;15.40;99.90
15959;DHT22;8078;47.822;9.402;2022-08-21T01:17:24;15.30;99.90
15959;DHT22;8078;47.822;9.402;2022-08-21T01:19:52;15.40;99.90
15959;DHT22;8078;47.822;9.402;2022-08-21T01:22:18;15.30;99.90
15959;DHT22;8078;47.822;9.402;2022-08-21T01:24:44;15.30;99.90
15959;DHT22;8078;47.822;9.402;2022-08-21T01:27:10;15.40;99.90
15959;DHT22;8078;47.822;9.402;2022-08-21T01:29:41;15.50;99.90
15959;DHT22;8078;47.822;9.402;2022-08-21T01:32:12;15.50;99.90
15959;DHT22;8078;47.822;9.402;2022-08-21T01:34:41;15.50;99.90
15959;DHT22;8078;47.822;9.402;2022-08-21T01:37:07;15.50;99.90
15959;DHT22;8078;47.822;9.402;2022-08-21T01:39:33;15.40;99.90
15959;DHT22;8078;47.822;9.402;2022-08-21T01:42:00;15.40;99.90
15959;DHT22;8078;47.822;9.402;2022-08-21T01:44:26;15.40;99.90
15959;DHT22;8078;47.822;9.402;2022-08-21T01:46:52;15.40;99.90
15959;DHT22;8078;47.822;9.402;2022-08-21T01:49:18;15.30;99.90
15959;DHT22;8078;47.822;9.402;2022-08-21T01:51:44;15.30;99.90
15959;DHT22;8078;47.822;9.402;2022-08-21T01:54:10;15.30;99.90
15959;DHT22;8078;47.822;9.402;2022-08-21T01:56:42;15.20;99.90
15959;DHT22;8078;47.822;9.402;2022-08-21T01:59:09;15.20;99.90
15959;DHT22;8078;47.822;9.402;2022-08-21T02:01:35;15.20;99.90
15959;DHT22;8078;47.822;9.402;2022-08-21T02:04:01;15.20;99.90
15959;DHT22;8078;47.822;9.402;2022-08-21T02:06:27;15.20;99.90
15959;DHT22;8078;47.822;9.402;2022-08-21T02:08:53;15.10;99.90
15959;DHT22;8078;47.822;9.402;2022-08-21T02:11:19;15.10;99.90
15959;DHT22;8078;47.822;9.402;2022-08-21T02:13:44;14.90;99.90
15959;DHT22;8078;47.822;9.402;2022-08-21T02:16:11;14.80;99.90
15959;DHT22;8078;47.822;9.402;2022-08-21T02:18:37;14.70;99.90
15959;DHT22;8078;47.822;9.402;2022-08-21T02:21:04;14.50;99.90
15959;DHT22;8078;47.822;9.402;2022-08-21T02:23:30;14.30;99.90
15959;DHT22;8078;47.822;9.402;2022-08-21T02:26:05;14.30;99.90
15959;DHT22;8078;47.822;9.402;2022-08-21T02:28:32;14.40;99.90
15959;DHT22;8078;47.822;9.402;2022-08-21T02:30:58;14.40;99.90
15959;DHT22;8078;47.822;9.402;2022-08-21T02:33:25;14.40;99.90
15959;DHT22;8078;47.822;9.402;2022-08-21T02:35:51;14.40;99.90
15959;DHT22;8078;47.822;9.402;2022-08-21T02:38:25;14.40;99.90
15959;DHT22;8078;47.822;9.402;2022-08-21T02:40:52;14.40;99.90
15959;DHT22;8078;47.822;9.402;2022-08-21T02:43:19;14.50;99.90
15959;DHT22;8078;47.822;9.402;2022-08-21T02:45:46;14.50;99.90
15959;DHT22;8078;47.822;9.402;2022-08-21T02:48:16;14.60;99.90
15959;DHT22;8078;47.822;9.402;2022-08-21T02:50:53;14.70;99.90
15959;DHT22;8078;47.822;9.402;2022-08-21T02:53:19;14.70;99.90
15959;DHT22;8078;47.822;9.402;2022-08-21T02:55:47;14.60;99.90
15959;DHT22;8078;47.822;9.402;2022-08-21T02:58:14;14.50;99.90
15959;DHT22;8078;47.822;9.402;2022-08-21T03:00:42;14.40;99.90
15959;DHT22;8078;47.822;9.402;2022-08-21T03:03:08;14.30;99.90
15959;DHT22;8078;47.822;9.402;2022-08-21T03:05:35;14.30;99.90
15959;DHT22;8078;47.822;9.402;2022-08-21T03:08:04;14.30;99.90
15959;DHT22;8078;47.822;9.402;2022-08-21T03:10:32;14.30;99.90
15959;DHT22;8078;47.822;9.402;2022-08-21T03:12:58;14.30;99.90
15959;DHT22;8078;47.822;9.402;2022-08-21T03:15:24;14.30;99.90
15959;DHT22;8078;47.822;9.402;2022-08-21T03:17:50;14.20;99.90
15959;DHT22;8078;47.822;9.402;2022-08-21T03:20:20;14.30;99.90
15959;DHT22;8078;47.822;9.402;2022-08-21T03:22:47;14.40;99.90
15959;DHT22;8078;47.822;9.402;2022-08-21T03:25:12;14.30;99.90
15959;DHT22;8078;47.822;9.402;2022-08-21T03:27:38;14.20;99.90
15959;DHT22;8078;47.822;9.402;2022-08-21T03:30:05;14.20;99.90
15959;DHT22;8078;47.822;9.402;2022-08-21T03:32:31;14.10;99.90
15959;DHT22;8078;47.822;9.402;2022-08-21T03:34:57;14.20;99.90
15959;DHT22;8078;47.822;9.402;2022-08-21T03:37:23;14.20;99.90
15959;DHT22;8078;47.822;9.402;2022-08-21T03:39:50;14.20;99.90
15959;DHT22;8078;47.822;9.402;2022-08-21T03:42:15;14.30;99.90
15959;DHT22;8078;47.822;9.402;2022-08-21T03:44:41;14.30;99.90
15959;DHT22;8078;47.822;9.402;2022-08-21T03:47:07;14.30;99.90
15959;DHT22;8078;47.822;9.402;2022-08-21T03:49:32;14.30;99.90
15959;DHT22;8078;47.822;9.402;2022-08-21T03:51:59;14.40;99.90
15959;DHT22;8078;47.822;9.402;2022-08-21T03:54:24;14.50;99.90
15959;DHT22;8078;47.822;9.402;2022-08-21T03:56:50;14.60;99.90
15959;DHT22;8078;47.822;9.402;2022-08-21T03:59:16;14.70;99.90
15959;DHT22;8078;47.822;9.402;2022-08-21T04:01:55;14.70;99.90
15959;DHT22;8078;47.822;9.402;2022-08-21T04:04:21;14.70;99.90
15959;DHT22;8078;47.822;9.402;2022-08-21T04:06:46;14.60;99.90
15959;DHT22;8078;47.822;9.402;2022-08-21T04:09:12;14.60;99.90
15959;DHT22;8078;47.822;9.402;2022-08-21T04:11:38;14.60;99.90
15959;DHT22;8078;47.822;9.402;2022-08-21T04:14:03;14.60;99.90
15959;DHT22;8078;47.822;9.402;2022-08-21T04:16:30;14.60;99.90
15959;DHT22;8078;47.822;9.402;2022-08-21T04:18:56;14.70;99.90
15959;DHT22;8078;47.822;9.402;2022-08-21T04:21:22;14.70;99.90
15959;DHT22;8078;47.822;9.402;2022-08-21T04:23:48;14.70;99.90
15959;DHT22;8078;47.822;9.402;2022-08-21T04:26:14;14.70;99.90
15959;DHT22;8078;47.822;9.402;2022-08-21T04:28:40;14.70;99.90
15959;DHT22;8078;47.822;9.402;2022-08-21T04:31:06;14.70;99.90
15959;DHT22;8078;47.822;9.402;2022-08-21T04:33:32;14.70;99.90
15959;DHT22;8078;47.822;9.402;2022-08-21T04:35:57;14.70;99.90
15959;DHT22;8078;47.822;9.402;2022-08-21T04:38:23;14.70;99.90
15959;DHT22;8078;47.822;9.402;2022-08-21T04:40:49;14.70;99.90
15959;DHT22;8078;47.822;9.402;2022-08-21T04:43:15;14.80;99.90
15959;DHT22;8078;47.822;9.402;2022-08-21T04:45:43;14.80;99.90
15959;DHT22;8078;47.822;9.402;2022-08-21T04:48:12;14.90;99.90
15959;DHT22;8078;47.822;9.402;2022-08-21T04:53:26;15.00;99.90
15959;DHT22;8078;47.822;9.402;2022-08-21T04:55:54;15.00;99.90
15959;DHT22;8078;47.822;9.402;2022-08-21T04:58:24;15.10;99.90
15959;DHT22;8078;47.822;9.402;2022-08-21T05:00:53;15.10;99.90
15959;DHT22;8078;47.822;9.402;2022-08-21T05:03:19;15.20;99.90
15959;DHT22;8078;47.822;9.402;2022-08-21T05:05:47;15.20;99.90
15959;DHT22;8078;47.822;9.402;2022-08-21T05:08:16;15.30;99.90
15959;DHT22;8078;47.822;9.402;2022-08-21T05:10:43;15.40;99.90
15959;DHT22;8078;47.822;9.402;2022-08-21T05:13:11;15.50;99.90
15959;DHT22;8078;47.822;9.402;2022-08-21T05:15:39;15.50;99.90
15959;DHT22;8078;47.822;9.402;2022-08-21T05:18:04;15.50;99.90
15959;DHT22;8078;47.822;9.402;2022-08-21T05:20:32;15.60;99.90
15959;DHT22;8078;47.822;9.402;2022-08-21T05:23:00;15.70;99.90
15959;DHT22;8078;47.822;9.402;2022-08-21T05:25:26;15.80;99.90
15959;DHT22;8078;47.822;9.402;2022-08-21T05:27:51;16.00;99.90
15959;DHT22;8078;47.822;9.402;2022-08-21T05:30:17;16.10;99.90
15959;DHT22;8078;47.822;9.402;2022-08-21T05:32:42;16.00;99.90
15959;DHT22;8078;47.822;9.402;2022-08-21T05:35:08;15.90;99.90
15959;DHT22;8078;47.822;9.402;2022-08-21T05:37:34;15.80;99.90
15959;DHT22;8078;47.822;9.402;2022-08-21T05:40:00;15.60;99.90
15959;DHT22;8078;47.822;9.402;2022-08-21T05:42:26;15.70;99.90
15959;DHT22;8078;47.822;9.402;2022-08-21T05:44:53;15.80;99.90
15959;DHT22;8078;47.822;9.402;2022-08-21T05:47:18;16.00;99.90
15959;DHT22;8078;47.822;9.402;2022-08-21T05:49:44;16.30;99.90
15959;DHT22;8078;47.822;9.402;2022-08-21T05:52:10;16.50;99.90
15959;DHT22;8078;47.822;9.402;2022-08-21T05:54:36;16.70;99.90
15959;DHT22;8078;47.822;9.402;2022-08-21T05:57:02;16.80;99.90
15959;DHT22;8078;47.822;9.402;2022-08-21T05:59:28;17.00;99.90
15959;DHT22;8078;47.822;9.402;2022-08-21T06:01:54;17.10;99.90
15959;DHT22;8078;47.822;9.402;2022-08-21T06:04:20;17.20;99.90
15959;DHT22;8078;47.822;9.402;2022-08-21T06:06:45;17.30;99.90
15959;DHT22;8078;47.822;9.402;2022-08-21T06:09:12;17.30;99.90
15959;DHT22;8078;47.822;9.402;2022-08-21T06:11:38;17.30;99.90
15959;DHT22;8078;47.822;9.402;2022-08-21T06:14:03;17.40;99.90
15959;DHT22;8078;47.822;9.402;2022-08-21T06:16:31;17.40;99.90
15959;DHT22;8078;47.822;9.402;2022-08-21T06:18:57;17.50;99.90
15959;DHT22;8078;47.822;9.402;2022-08-21T06:21:23;17.60;99.90
15959;DHT22;8078;47.822;9.402;2022-08-21T06:23:48;17.70;99.90
15959;DHT22;8078;47.822;9.402;2022-08-21T06:26:14;17.90;99.90
15959;DHT22;8078;47.822;9.402;2022-08-21T06:28:41;18.20;99.90
15959;DHT22;8078;47.822;9.402;2022-08-21T06:33:37;18.60;99.90
15959;DHT22;8078;47.822;9.402;2022-08-21T06:36:02;18.80;99.90
15959;DHT22;8078;47.822;9.402;2022-08-21T06:38:28;18.90;99.90
15959;DHT22;8078;47.822;9.402;2022-08-21T06:40:53;19.00;99.90
15959;DHT22;8078;47.822;9.402;2022-08-21T06:43:19;19.00;99.90
15959;DHT22;8078;47.822;9.402;2022-08-21T06:45:44;19.00;99.90
15959;DHT22;8078;47.822;9.402;2022-08-21T06:48:10;18.90;99.90
15959;DHT22;8078;47.822;9.402;2022-08-21T06:50:37;18.80;99.90
15959;DHT22;8078;47.822;9.402;2022-08-21T06:53:15;18.60;99.90
15959;DHT22;8078;47.822;9.402;2022-08-21T06:55:41;18.60;99.90
15959;DHT22;8078;47.822;9.402;2022-08-21T06:58:08;18.60;99.90
15959;DHT22;8078;47.822;9.402;2022-08-21T07:00:37;18.50;99.90
15959;DHT22;8078;47.822;9.402;2022-08-21T07:03:03;18.40;99.90
15959;DHT22;8078;47.822;9.402;2022-08-21T07:05:30;18.40;99.90
15959;DHT22;8078;47.822;9.402;2022-08-21T07:07:56;18.40;99.90
15959;DHT22;8078;47.822;9.402;2022-08-21T07:10:23;18.50;99.90
15959;DHT22;8078;47.822;9.402;2022-08-21T07:12:50;18.70;99.90
15959;DHT22;8078;47.822;9.402;2022-08-21T07:15:16;18.90;99.90
15959;DHT22;8078;47.822;9.402;2022-08-21T07:17:42;19.10;99.90
15959;DHT22;8078;47.822;9.402;2022-08-21T07:20:08;19.30;99.90
15959;DHT22;8078;47.822;9.402;2022-08-21T07:22:36;19.50;99.90
15959;DHT22;8078;47.822;9.402;2022-08-21T07:25:04;19.50;99.90
15959;DHT22;8078;47.822;9.402;2022-08-21T07:27:29;19.60;99.90
15959;DHT22;8078;47.822;9.402;2022-08-21T07:29:57;19.80;99.90
15959;DHT22;8078;47.822;9.402;2022-08-21T07:32:22;20.00;99.90
15959;DHT22;8078;47.822;9.402;2022-08-21T07:34:48;20.40;99.90
15959;DHT22;8078;47.822;9.402;2022-08-21T07:37:13;20.70;99.90
15959;DHT22;8078;47.822;9.402;2022-08-21T07:39:39;20.90;99.90
15959;DHT22;8078;47.822;9.402;2022-08-21T07:42:05;21.20;99.90
15959;DHT22;8078;47.822;9.402;2022-08-21T07:44:30;21.30;99.90
15959;DHT22;8078;47.822;9.402;2022-08-21T07:46:57;21.50;99.90
15959;DHT22;8078;47.822;9.402;2022-08-21T07:49:22;21.50;99.90
15959;DHT22;8078;47.822;9.402;2022-08-21T07:51:48;21.50;99.90
15959;DHT22;8078;47.822;9.402;2022-08-21T07:54:13;21.50;99.90
15959;DHT22;8078;47.822;9.402;2022-08-21T07:56:39;21.50;99.90
15959;DHT22;8078;47.822;9.402;2022-08-21T07:59:05;21.70;99.90
15959;DHT22;8078;47.822;9.402;2022-08-21T08:01:30;21.90;99.90
15959;DHT22;8078;47.822;9.402;2022-08-21T08:03:56;22.00;99.90
15959;DHT22;8078;47.822;9.402;2022-08-21T08:06:22;21.50;99.90
15959;DHT22;8078;47.822;9.402;2022-08-21T08:08:47;21.30;99.90
15959;DHT22;8078;47.822;9.402;2022-08-21T08:11:13;21.80;99.90
15959;DHT22;8078;47.822;9.402;2022-08-21T08:13:47;22.10;99.90
15959;DHT22;8078;47.822;9.402;2022-08-21T08:16:14;22.30;99.90
15959;DHT22;8078;47.822;9.402;2022-08-21T08:18:40;22.40;99.90
15959;DHT22;8078;47.822;9.402;2022-08-21T08:21:08;22.60;99.90
15959;DHT22;8078;47.822;9.402;2022-08-21T08:23:34;22.30;99.90
15959;DHT22;8078;47.822;9.402;2022-08-21T08:26:00;22.30;99.90
15959;DHT22;8078;47.822;9.402;2022-08-21T08:28:28;22.30;99.90
15959;DHT22;8078;47.822;9.402;2022-08-21T08:30:54;22.20;99.90
15959;DHT22;8078;47.822;9.402;2022-08-21T08:33:21;22.10;99.90
15959;DHT22;8078;47.822;9.402;2022-08-21T08:35:49;22.10;99.90
15959;DHT22;8078;47.822;9.402;2022-08-21T08:38:16;22.00;99.90
15959;DHT22;8078;47.822;9.402;2022-08-21T08:43:38;22.40;99.90
15959;DHT22;8078;47.822;9.402;2022-08-21T08:46:10;22.50;99.90
15959;DHT22;8078;47.822;9.402;2022-08-21T08:48:57;23.00;99.90
15959;DHT22;8078;47.822;9.402;2022-08-21T08:51:25;23.30;99.90
15959;DHT22;8078;47.822;9.402;2022-08-21T08:53:58;23.50;99.90
15959;DHT22;8078;47.822;9.402;2022-08-21T08:56:30;22.90;99.90
15959;DHT22;8078;47.822;9.402;2022-08-21T08:59:41;22.50;99.90
15959;DHT22;8078;47.822;9.402;2022-08-21T09:01:48;22.40;99.90
15959;DHT22;8078;47.822;9.402;2022-08-21T09:04:25;22.50;99.90
15959;DHT22;8078;47.822;9.402;2022-08-21T09:06:58;22.60;99.90
15959;DHT22;8078;47.822;9.402;2022-08-21T09:09:49;23.10;99.90
15959;DHT22;8078;47.822;9.402;2022-08-21T09:18:31;22.80;99.90
15959;DHT22;8078;47.822;9.402;2022-08-21T09:26:02;21.00;99.90
15959;DHT22;8078;47.822;9.402;2022-08-21T09:28:33;21.00;99.90
15959;DHT22;8078;47.822;9.402;2022-08-21T09:30:59;20.70;99.90
15959;DHT22;8078;47.822;9.402;2022-08-21T09:33:28;20.10;99.90
15959;DHT22;8078;47.822;9.402;2022-08-21T09:35:55;20.10;99.90
15959;DHT22;8078;47.822;9.402;2022-08-21T09:38:32;19.90;99.90
15959;DHT22;8078;47.822;9.402;2022-08-21T09:41:07;20.10;99.90
15959;DHT22;8078;47.822;9.402;2022-08-21T09:43:34;20.40;99.90
15959;DHT22;8078;47.822;9.402;2022-08-21T09:46:09;20.40;99.90
15959;DHT22;8078;47.822;9.402;2022-08-21T09:48:47;20.10;99.90
15959;DHT22;8078;47.822;9.402;2022-08-21T09:51:50;20.50;99.90
15959;DHT22;8078;47.822;9.402;2022-08-21T09:56:39;21.90;99.90
15959;DHT22;8078;47.822;9.402;2022-08-21T09:59:29;22.30;99.90
15959;DHT22;8078;47.822;9.402;2022-08-21T10:01:58;22.80;99.90
15959;DHT22;8078;47.822;9.402;2022-08-21T10:04:34;22.90;99.90
15959;DHT22;8078;47.822;9.402;2022-08-21T10:07:08;23.10;99.90
15959;DHT22;8078;47.822;9.402;2022-08-21T10:09:34;23.90;99.90
15959;DHT22;8078;47.822;9.402;2022-08-21T10:17:28;23.60;99.90
15959;DHT22;8078;47.822;9.402;2022-08-21T10:20:04;23.30;99.90
15959;DHT22;8078;47.822;9.402;2022-08-21T10:25:50;23.10;99.90
15959;DHT22;8078;47.822;9.402;2022-08-21T10:28:33;23.20;99.90
15959;DHT22;8078;47.822;9.402;2022-08-21T10:31:32;23.20;99.90
15959;DHT22;8078;47.822;9.402;2022-08-21T10:37:01;23.60;99.90
15959;DHT22;8078;47.822;9.402;2022-08-21T10:39:35;24.00;99.90
15959;DHT22;8078;47.822;9.402;2022-08-21T10:47:57;24.40;99.90
15959;DHT22;8078;47.822;9.402;2022-08-21T10:50:31;24.20;99.90
15959;DHT22;8078;47.822;9.402;2022-08-21T10:55:36;23.70;99.90
15959;DHT22;8078;47.822;9.402;2022-08-21T10:58:14;23.50;99.90
15959;DHT22;8078;47.822;9.402;2022-08-21T11:00:50;23.60;99.90
15959;DHT22;8078;47.822;9.402;2022-08-21T11:03:32;24.20;99.90
15959;DHT22;8078;47.822;9.402;2022-08-21T11:06:05;24.90;99.90
15959;DHT22;8078;47.822;9.402;2022-08-21T11:08:43;24.90;99.90
15959;DHT22;8078;47.822;9.402;2022-08-21T11:11:25;25.20;99.90
15959;DHT22;8078;47.822;9.402;2022-08-21T11:16:48;26.00;99.90
15959;DHT22;8078;47.822;9.402;2022-08-21T11:19:33;26.20;99.90
15959;DHT22;8078;47.822;9.402;2022-08-21T11:22:13;26.90;99.90
15959;DHT22;8078;47.822;9.402;2022-08-21T11:29:59;27.00;99.90
15959;DHT22;8078;47.822;9.402;2022-08-21T11:35:33;27.40;99.90
15959;DHT22;8078;47.822;9.402;2022-08-21T11:40:53;25.40;99.90
15959;DHT22;8078;47.822;9.402;2022-08-21T11:45:56;25.40;99.90
15959;DHT22;8078;47.822;9.402;2022-08-21T11:48:49;25.30;99.90
15959;DHT22;8078;47.822;9.402;2022-08-21T11:51:22;25.20;99.90
15959;DHT22;8078;47.822;9.402;2022-08-21T11:54:03;24.90;99.90
15959;DHT22;8078;47.822;9.402;2022-08-21T11:56:35;24.60;99.90
15959;DHT22;8078;47.822;9.402;2022-08-21T11:59:11;24.40;99.90
15959;DHT22;8078;47.822;9.402;2022-08-21T12:01:43;24.20;99.90
15959;DHT22;8078;47.822;9.402;2022-08-21T12:06:43;24.20;99.90
15959;DHT22;8078;47.822;9.402;2022-08-21T12:09:27;24.60;99.90
15959;DHT22;8078;47.822;9.402;2022-08-21T12:12:12;25.10;99.90
15959;DHT22;8078;47.822;9.402;2022-08-21T12:14:49;25.30;99.90
15959;DHT22;8078;47.822;9.402;2022-08-21T12:17:23;25.70;99.90
15959;DHT22;8078;47.822;9.402;2022-08-21T12:19:59;26.60;99.90
15959;DHT22;8078;47.822;9.402;2022-08-21T12:22:37;27.00;99.90
15959;DHT22;8078;47.822;9.402;2022-08-21T12:25:07;27.30;99.90
15959;DHT22;8078;47.822;9.402;2022-08-21T12:27:47;27.20;99.90
15959;DHT22;8078;47.822;9.402;2022-08-21T12:32:54;27.00;99.90
15959;DHT22;8078;47.822;9.402;2022-08-21T12:36:45;27.50;99.90
15959;DHT22;8078;47.822;9.402;2022-08-21T12:39:20;26.70;99.90
15959;DHT22;8078;47.822;9.402;2022-08-21T12:41:51;27.00;99.90
15959;DHT22;8078;47.822;9.402;2022-08-21T12:44:27;27.00;99.90
15959;DHT22;8078;47.822;9.402;2022-08-21T12:47:02;26.30;99.90
15959;DHT22;8078;47.822;9.402;2022-08-21T12:49:37;25.80;99.90
15959;DHT22;8078;47.822;9.402;2022-08-21T12:52:16;25.60;99.90
15959;DHT22;8078;47.822;9.402;2022-08-21T12:54:45;25.30;99.90
15959;DHT22;8078;47.822;9.402;2022-08-21T12:57:27;25.00;99.90
15959;DHT22;8078;47.822;9.402;2022-08-21T13:00:03;24.80;99.90
15959;DHT22;8078;47.822;9.402;2022-08-21T13:02:36;24.60;99.90
15959;DHT22;8078;47.822;9.402;2022-08-21T13:05:07;24.80;99.90
15959;DHT22;8078;47.822;9.402;2022-08-21T13:07:35;25.60;99.90
15959;DHT22;8078;47.822;9.402;2022-08-21T13:11:02;26.90;99.90
15959;DHT22;8078;47.822;9.402;2022-08-21T13:13:29;27.40;99.90
15959;DHT22;8078;47.822;9.402;2022-08-21T13:18:28;28.70;99.90
15959;DHT22;8078;47.822;9.402;2022-08-21T13:21:10;29.00;99.90
15959;DHT22;8078;47.822;9.402;2022-08-21T13:23:36;28.20;99.90
15959;DHT22;8078;47.822;9.402;2022-08-21T13:26:12;28.60;99.90
15959;DHT22;8078;47.822;9.402;2022-08-21T13:28:37;28.90;99.90
15959;DHT22;8078;47.822;9.402;2022-08-21T13:31:07;28.40;99.90
15959;DHT22;8078;47.822;9.402;2022-08-21T13:33:35;27.90;99.90
15959;DHT22;8078;47.822;9.402;2022-08-21T13:36:17;28.10;99.90
15959;DHT22;8078;47.822;9.402;2022-08-21T13:38:45;28.10;99.90
15959;DHT22;8078;47.822;9.402;2022-08-21T13:41:21;27.40;99.90
15959;DHT22;8078;47.822;9.402;2022-08-21T13:43:57;26.60;99.90
15959;DHT22;8078;47.822;9.402;2022-08-21T13:46:26;26.40;99.90
15959;DHT22;8078;47.822;9.402;2022-08-21T13:48:53;25.40;99.90
15959;DHT22;8078;47.822;9.402;2022-08-21T13:51:20;25.20;99.90
15959;DHT22;8078;47.822;9.402;2022-08-21T13:53:49;24.50;99.90
15959;DHT22;8078;47.822;9.402;2022-08-21T13:56:26;24.40;99.90
15959;DHT22;8078;47.822;9.402;2022-08-21T13:58:53;23.70;99.90
15959;DHT22;8078;47.822;9.402;2022-08-21T14:01:29;23.10;99.90
15959;DHT22;8078;47.822;9.402;2022-08-21T14:04:02;22.60;99.90
15959;DHT22;8078;47.822;9.402;2022-08-21T14:06:34;22.30;99.90
15959;DHT22;8078;47.822;9.402;2022-08-21T14:09:09;22.20;99.90
15959;DHT22;8078;47.822;9.402;2022-08-21T14:11:35;22.20;99.90
15959;DHT22;8078;47.822;9.402;2022-08-21T14:14:05;22.40;99.90
15959;DHT22;8078;47.822;9.402;2022-08-21T14:16:46;23.40;99.90
15959;DHT22;8078;47.822;9.402;2022-08-21T14:21:46;25.50;99.90
15959;DHT22;8078;47.822;9.402;2022-08-21T14:24:30;25.40;99.90
15959;DHT22;8078;47.822;9.402;2022-08-21T14:27:07;26.10;99.90
15959;DHT22;8078;47.822;9.402;2022-08-21T14:29:40;26.50;99.90
15959;DHT22;8078;47.822;9.402;2022-08-21T14:32:15;25.50;99.90
15959;DHT22;8078;47.822;9.402;2022-08-21T14:37:10;24.40;99.90
15959;DHT22;8078;47.822;9.402;2022-08-21T14:39:35;24.20;99.90
15959;DHT22;8078;47.822;9.402;2022-08-21T14:42:01;24.30;99.90
15959;DHT22;8078;47.822;9.402;2022-08-21T14:44:27;24.90;99.90
15959;DHT22;8078;47.822;9.402;2022-08-21T14:46:53;25.30;99.90
15959;DHT22;8078;47.822;9.402;2022-08-21T14:49:18;25.50;99.90
15959;DHT22;8078;47.822;9.402;2022-08-21T14:51:44;25.80;99.90
15959;DHT22;8078;47.822;9.402;2022-08-21T14:54:10;26.50;99.90
15959;DHT22;8078;47.822;9.402;2022-08-21T14:56:35;27.30;99.90
15959;DHT22;8078;47.822;9.402;2022-08-21T14:59:07;27.40;99.90
15959;DHT22;8078;47.822;9.402;2022-08-21T15:01:35;28.00;99.90
15959;DHT22;8078;47.822;9.402;2022-08-21T15:04:01;28.10;99.90
15959;DHT22;8078;47.822;9.402;2022-08-21T15:06:27;28.30;99.90
15959;DHT22;8078;47.822;9.402;2022-08-21T15:10:23;28.90;99.90
15959;DHT22;8078;47.822;9.402;2022-08-21T15:12:49;29.40;99.90
15959;DHT22;8078;47.822;9.402;2022-08-21T15:15:14;29.90;99.90
15959;DHT22;8078;47.822;9.402;2022-08-21T15:17:40;29.10;99.90
15959;DHT22;8078;47.822;9.402;2022-08-21T15:20:06;29.10;99.90
15959;DHT22;8078;47.822;9.402;2022-08-21T15:22:32;29.40;99.90
15959;DHT22;8078;47.822;9.402;2022-08-21T15:24:58;30.20;99.90
15959;DHT22;8078;47.822;9.402;2022-08-21T15:27:24;30.20;99.90
15959;DHT22;8078;47.822;9.402;2022-08-21T15:29:49;29.90;99.90
15959;DHT22;8078;47.822;9.402;2022-08-21T15:32:21;29.50;99.90
15959;DHT22;8078;47.822;9.402;2022-08-21T15:34:49;29.40;99.90
15959;DHT22;8078;47.822;9.402;2022-08-21T15:37:15;29.70;99.90
15959;DHT22;8078;47.822;9.402;2022-08-21T15:39:40;30.00;99.90
15959;DHT22;8078;47.822;9.402;2022-08-21T15:42:06;30.50;99.90
15959;DHT22;8078;47.822;9.402;2022-08-21T15:44:32;30.60;99.90
15959;DHT22;8078;47.822;9.402;2022-08-21T15:46:58;30.90;99.90
15959;DHT22;8078;47.822;9.402;2022-08-21T15:49:24;31.00;99.90
15959;DHT22;8078;47.822;9.402;2022-08-21T15:51:50;29.90;99.90
15959;DHT22;8078;47.822;9.402;2022-08-21T15:54:15;28.70;99.90
15959;DHT22;8078;47.822;9.402;2022-08-21T15:56:44;28.10;99.90
15959;DHT22;8078;47.822;9.402;2022-08-21T15:59:16;28.00;99.90
15959;DHT22;8078;47.822;9.402;2022-08-21T16:01:43;27.50;99.90
15959;DHT22;8078;47.822;9.402;2022-08-21T16:04:09;27.10;99.90
15959;DHT22;8078;47.822;9.402;2022-08-21T16:06:35;27.50;99.90
15959;DHT22;8078;47.822;9.402;2022-08-21T16:09:01;28.10;99.90
15959;DHT22;8078;47.822;9.402;2022-08-21T16:11:27;28.60;99.90
15959;DHT22;8078;47.822;9.402;2022-08-21T16:13:53;29.10;99.90
15959;DHT22;8078;47.822;9.402;2022-08-21T16:16:21;29.60;99.90
15959;DHT22;8078;47.822;9.402;2022-08-21T16:18:48;29.90;99.90
15959;DHT22;8078;47.822;9.402;2022-08-21T16:21:15;30.00;99.90
15959;DHT22;8078;47.822;9.402;2022-08-21T16:23:41;30.20;99.90
15959;DHT22;8078;47.822;9.402;2022-08-21T16:26:08;30.40;99.90
15959;DHT22;8078;47.822;9.402;2022-08-21T16:28:36;30.50;99.90
15959;DHT22;8078;47.822;9.402;2022-08-21T16:31:03;30.80;99.90
15959;DHT22;8078;47.822;9.402;2022-08-21T16:33:39;31.00;99.90
15959;DHT22;8078;47.822;9.402;2022-08-21T16:36:06;31.10;99.90
15959;DHT22;8078;47.822;9.402;2022-08-21T16:38:33;31.30;99.90
15959;DHT22;8078;47.822;9.402;2022-08-21T16:41:01;30.90;99.90
15959;DHT22;8078;47.822;9.402;2022-08-21T16:43:28;30.50;99.90
15959;DHT22;8078;47.822;9.402;2022-08-21T16:45:56;30.60;99.90
15959;DHT22;8078;47.822;9.402;2022-08-21T16:48:22;30.70;99.90
15959;DHT22;8078;47.822;9.402;2022-08-21T16:50:48;31.40;99.90
15959;DHT22;8078;47.822;9.402;2022-08-21T16:53:14;31.80;99.90
15959;DHT22;8078;47.822;9.402;2022-08-21T16:55:40;31.90;99.90
15959;DHT22;8078;47.822;9.402;2022-08-21T16:58:16;31.90;99.90
15959;DHT22;8078;47.822;9.402;2022-08-21T17:00:43;31.60;99.90
15959;DHT22;8078;47.822;9.402;2022-08-21T17:03:13;31.10;99.90
15959;DHT22;8078;47.822;9.402;2022-08-21T17:05:40;30.50;99.90
15959;DHT22;8078;47.822;9.402;2022-08-21T17:08:06;29.40;99.90
15959;DHT22;8078;47.822;9.402;2022-08-21T17:10:33;29.10;99.90